sensor_id;sensor_type;location;lat;lon;timestamp;temperature;humidity
18717;DHT22;9487;50.892;6.906;2022-12-18T00:00:42;-3.80;59.60
18717;DHT22;9487;50.892;6.906;2022-12-18T00:03:09;-3.80;1.00
18717;DHT22;9487;50.892;6.906;2022-12-18T00:05:45;-3.90;1.00
18717;DHT22;9487;50.892;6.906;2022-12-18T00:08:12;-4.10;1.00
18717;DHT22;9487;50.892;6.906;2022-12-18T00:10:38;-4.20;1.00
18717;DHT22;9487;50.892;6.906;2022-12-18T00:13:05;-4.30;5.80
18717;DHT22;9487;50.892;6.906;2022-12-18T00:15:33;-4.20;99.90
18717;DHT22;9487;50.892;6.906;2022-12-18T00:18:00;-4.30;99.90
18717;DHT22;9487;50.892;6.906;2022-12-18T00:20:27;-4.30;99.90
18717;DHT22;9487;50.892;6.906;2022-12-18T00:22:55;-4.20;99.90
18717;DHT22;9487;50.892;6.906;2022-12-18T00:25:22;-4.20;99.90
18717;DHT22;9487;50.892;6.906;2022-12-18T00:27:49;-4.00;99.90
18717;DHT22;9487;50.892;6.906;2022-12-18T00:30:16;-3.90;87.80
18717;DHT22;9487;50.892;6.906;2022-12-18T00:32:42;-3.90;1.00
18717;DHT22;9487;50.892;6.906;2022-12-18T00:35:09;-4.00;1.00
18717;DHT22;9487;50.892;6.906;2022-12-18T00:37:36;-4.10;1.00
18717;DHT22;9487;50.892;6.906;2022-12-18T00:40:05;-4.10;1.00
18717;DHT22;9487;50.892;6.906;2022-12-18T00:42:32;-4.20;1.10
18717;DHT22;9487;50.892;6.906;2022-12-18T00:45:17;-4.20;52.10
18717;DHT22;9487;50.892;6.906;2022-12-18T00:47:43;-4.10;99.90
18717;DHT22;9487;50.892;6.906;2022-12-18T00:50:10;-4.00;16.10
18717;DHT22;9487;50.892;6.906;2022-12-18T00:52:37;-4.00;1.00
18717;DHT22;9487;50.892;6.906;2022-12-18T00:55:06;-4.00;1.00
18717;DHT22;9487;50.892;6.906;2022-12-18T00:57:33;-4.10;1.00
18717;DHT22;9487;50.892;6.906;2022-12-18T01:00:00;-4.00;1.00
18717;DHT22;9487;50.892;6.906;2022-12-18T01:02:27;-4.10;1.00
18717;DHT22;9487;50.892;6.906;2022-12-18T01:04:54;-4.20;1.00
18717;DHT22;9487;50.892;6.906;2022-12-18T01:07:21;-4.20;1.00
18717;DHT22;9487;50.892;6.906;2022-12-18T01:09:47;-4.20;1.00
18717;DHT22;9487;50.892;6.906;2022-12-18T01:12:16;-4.30;1.00
18717;DHT22;9487;50.892;6.906;2022-12-18T01:14:42;-4.30;15.30
18717;DHT22;9487;50.892;6.906;2022-12-18T01:17:09;-4.30;99.90
18717;DHT22;9487;50.892;6.906;2022-12-18T01:19:36;-4.40;99.90
18717;DHT22;9487;50.892;6.906;2022-12-18T01:22:03;-4.40;99.90
18717;DHT22;9487;50.892;6.906;2022-12-18T01:24:29;-4.50;99.90
18717;DHT22;9487;50.892;6.906;2022-12-18T01:26:56;-4.50;99.90
18717;DHT22;9487;50.892;6.906;2022-12-18T01:29:24;-4.50;99.90
18717;DHT22;9487;50.892;6.906;2022-12-18T01:31:54;-4.40;1.00
18717;DHT22;9487;50.892;6.906;2022-12-18T01:34:21;-4.40;99.90
18717;DHT22;9487;50.892;6.906;2022-12-18T01:36:48;-4.40;1.00
18717;DHT22;9487;50.892;6.906;2022-12-18T01:39:18;-4.40;1.00
18717;DHT22;9487;50.892;6.906;2022-12-18T01:41:45;-4.40;1.00
18717;DHT22;9487;50.892;6.906;2022-12-18T01:44:57;-4.30;1.00
18717;DHT22;9487;50.892;6.906;2022-12-18T01:47:27;-4.20;1.00
18717;DHT22;9487;50.892;6.906;2022-12-18T01:49:56;-4.20;99.90
18717;DHT22;9487;50.892;6.906;2022-12-18T01:52:24;-4.10;99.90
18717;DHT22;9487;50.892;6.906;2022-12-18T01:54:52;-4.10;99.90
18717;DHT22;9487;50.892;6.906;2022-12-18T01:57:19;-4.20;25.50
18717;DHT22;9487;50.892;6.906;2022-12-18T01:59:51;-4.30;28.70
18717;DHT22;9487;50.892;6.906;2022-12-18T02:02:20;-4.30;99.90
18717;DHT22;9487;50.892;6.906;2022-12-18T02:04:47;-4.40;99.90
18717;DHT22;9487;50.892;6.906;2022-12-18T02:07:20;-4.40;99.90
18717;DHT22;9487;50.892;6.906;2022-12-18T02:09:52;-4.50;99.90
18717;DHT22;9487;50.892;6.906;2022-12-18T02:12:23;-4.50;99.90
18717;DHT22;9487;50.892;6.906;2022-12-18T02:14:55;-4.40;99.90
18717;DHT22;9487;50.892;6.906;2022-12-18T02:17:32;-4.50;99.90
18717;DHT22;9487;50.892;6.906;2022-12-18T02:20:07;-4.60;99.90
18717;DHT22;9487;50.892;6.906;2022-12-18T02:22:45;-4.60;99.90
18717;DHT22;9487;50.892;6.906;2022-12-18T02:25:28;-4.60;99.90
18717;DHT22;9487;50.892;6.906;2022-12-18T02:28:00;-4.50;99.90
18717;DHT22;9487;50.892;6.906;2022-12-18T02:30:31;-4.50;99.90
18717;DHT22;9487;50.892;6.906;2022-12-18T02:33:01;-4.50;99.90
18717;DHT22;9487;50.892;6.906;2022-12-18T02:35:31;-4.50;99.90
18717;DHT22;9487;50.892;6.906;2022-12-18T02:37:58;-4.50;99.90
18717;DHT22;9487;50.892;6.906;2022-12-18T02:40:28;-4.30;99.90
18717;DHT22;9487;50.892;6.906;2022-12-18T02:42:55;-4.30;1.00
18717;DHT22;9487;50.892;6.906;2022-12-18T02:45:29;-4.20;1.00
18717;DHT22;9487;50.892;6.906;2022-12-18T02:47:56;-4.20;99.90
18717;DHT22;9487;50.892;6.906;2022-12-18T02:50:29;-4.30;99.90
18717;DHT22;9487;50.892;6.906;2022-12-18T02:53:05;-4.40;99.90
18717;DHT22;9487;50.892;6.906;2022-12-18T02:55:43;-4.50;1.00
18717;DHT22;9487;50.892;6.906;2022-12-18T02:58:16;-4.60;1.00
18717;DHT22;9487;50.892;6.906;2022-12-18T03:00:51;-4.60;1.00
18717;DHT22;9487;50.892;6.906;2022-12-18T03:03:24;-4.70;1.00
18717;DHT22;9487;50.892;6.906;2022-12-18T03:05:55;-4.70;6.30
18717;DHT22;9487;50.892;6.906;2022-12-18T03:08:26;-4.80;99.90
18717;DHT22;9487;50.892;6.906;2022-12-18T03:10:58;-4.80;99.90
18717;DHT22;9487;50.892;6.906;2022-12-18T03:13:32;-4.70;99.90
18717;DHT22;9487;50.892;6.906;2022-12-18T03:16:05;-4.70;99.90
18717;DHT22;9487;50.892;6.906;2022-12-18T03:18:35;-4.70;99.90
18717;DHT22;9487;50.892;6.906;2022-12-18T03:21:06;-4.70;99.90
18717;DHT22;9487;50.892;6.906;2022-12-18T03:23:39;-4.70;99.90
18717;DHT22;9487;50.892;6.906;2022-12-18T03:26:09;-4.60;99.90
18717;DHT22;9487;50.892;6.906;2022-12-18T03:28:39;-4.50;4.40
18717;DHT22;9487;50.892;6.906;2022-12-18T03:31:11;-4.50;1.00
18717;DHT22;9487;50.892;6.906;2022-12-18T03:33:40;-4.50;1.00
18717;DHT22;9487;50.892;6.906;2022-12-18T03:36:08;-4.50;1.00
18717;DHT22;9487;50.892;6.906;2022-12-18T03:38:35;-4.40;1.00
18717;DHT22;9487;50.892;6.906;2022-12-18T03:41:07;-4.30;1.00
18717;DHT22;9487;50.892;6.906;2022-12-18T03:43:43;-4.40;99.90
18717;DHT22;9487;50.892;6.906;2022-12-18T03:46:20;-4.50;99.90
18717;DHT22;9487;50.892;6.906;2022-12-18T03:48:54;-4.50;99.90
18717;DHT22;9487;50.892;6.906;2022-12-18T03:51:27;-4.50;1.00
18717;DHT22;9487;50.892;6.906;2022-12-18T03:53:58;-4.50;1.00
18717;DHT22;9487;50.892;6.906;2022-12-18T03:56:28;-4.40;1.00
18717;DHT22;9487;50.892;6.906;2022-12-18T03:58:57;-4.40;99.90
18717;DHT22;9487;50.892;6.906;2022-12-18T04:01:31;-4.30;99.90
18717;DHT22;9487;50.892;6.906;2022-12-18T04:04:00;-4.40;99.90
18717;DHT22;9487;50.892;6.906;2022-12-18T04:06:28;-4.40;99.90
18717;DHT22;9487;50.892;6.906;2022-12-18T04:08:56;-4.40;1.00
18717;DHT22;9487;50.892;6.906;2022-12-18T04:11:24;-4.30;1.00
18717;DHT22;9487;50.892;6.906;2022-12-18T04:13:52;-4.30;99.90
18717;DHT22;9487;50.892;6.906;2022-12-18T04:16:21;-4.30;99.90
18717;DHT22;9487;50.892;6.906;2022-12-18T04:18:49;-4.30;99.90
18717;DHT22;9487;50.892;6.906;2022-12-18T04:21:16;-4.50;99.90
18717;DHT22;9487;50.892;6.906;2022-12-18T04:23:43;-4.70;99.90
18717;DHT22;9487;50.892;6.906;2022-12-18T04:26:10;-4.70;1.00
18717;DHT22;9487;50.892;6.906;2022-12-18T04:28:36;-4.80;1.00
18717;DHT22;9487;50.892;6.906;2022-12-18T04:31:03;-4.80;1.00
18717;DHT22;9487;50.892;6.906;2022-12-18T04:33:30;-4.90;42.20
18717;DHT22;9487;50.892;6.906;2022-12-18T04:35:58;-4.80;99.90
18717;DHT22;9487;50.892;6.906;2022-12-18T04:38:25;-4.80;99.90
18717;DHT22;9487;50.892;6.906;2022-12-18T04:40:52;-4.80;99.90
18717;DHT22;9487;50.892;6.906;2022-12-18T04:43:19;-4.90;99.90
18717;DHT22;9487;50.892;6.906;2022-12-18T04:45:46;-5.00;99.90
18717;DHT22;9487;50.892;6.906;2022-12-18T04:48:12;-5.00;99.90
18717;DHT22;9487;50.892;6.906;2022-12-18T04:50:39;-4.90;99.90
18717;DHT22;9487;50.892;6.906;2022-12-18T04:53:07;-4.90;99.90
18717;DHT22;9487;50.892;6.906;2022-12-18T04:55:34;-4.90;99.90
18717;DHT22;9487;50.892;6.906;2022-12-18T04:58:01;-4.90;99.90
18717;DHT22;9487;50.892;6.906;2022-12-18T05:00:28;-4.90;99.90
18717;DHT22;9487;50.892;6.906;2022-12-18T05:02:54;-4.80;99.90
18717;DHT22;9487;50.892;6.906;2022-12-18T05:05:21;-4.80;49.40
18717;DHT22;9487;50.892;6.906;2022-12-18T05:07:48;-4.70;1.00
18717;DHT22;9487;50.892;6.906;2022-12-18T05:10:16;-4.70;1.00
18717;DHT22;9487;50.892;6.906;2022-12-18T05:12:43;-4.70;1.00
18717;DHT22;9487;50.892;6.906;2022-12-18T05:15:26;-4.80;1.00
18717;DHT22;9487;50.892;6.906;2022-12-18T05:17:53;-4.90;1.00
18717;DHT22;9487;50.892;6.906;2022-12-18T05:20:20;-5.00;1.00
18717;DHT22;9487;50.892;6.906;2022-12-18T05:22:46;-5.10;1.00
18717;DHT22;9487;50.892;6.906;2022-12-18T05:25:13;-5.10;1.00
18717;DHT22;9487;50.892;6.906;2022-12-18T05:27:42;-5.30;1.00
18717;DHT22;9487;50.892;6.906;2022-12-18T05:30:09;-5.30;95.10
18717;DHT22;9487;50.892;6.906;2022-12-18T05:32:36;-5.30;99.90
18717;DHT22;9487;50.892;6.906;2022-12-18T05:35:05;-5.40;99.90
18717;DHT22;9487;50.892;6.906;2022-12-18T05:37:32;-5.40;1.00
18717;DHT22;9487;50.892;6.906;2022-12-18T05:39:59;-5.40;1.00
18717;DHT22;9487;50.892;6.906;2022-12-18T05:42:26;-5.30;1.00
18717;DHT22;9487;50.892;6.906;2022-12-18T05:44:54;-5.30;1.00
18717;DHT22;9487;50.892;6.906;2022-12-18T05:47:20;-5.20;1.00
18717;DHT22;9487;50.892;6.906;2022-12-18T05:49:47;-5.10;1.00
18717;DHT22;9487;50.892;6.906;2022-12-18T05:52:14;-4.90;1.00
18717;DHT22;9487;50.892;6.906;2022-12-18T05:54:41;-5.00;99.90
18717;DHT22;9487;50.892;6.906;2022-12-18T05:57:08;-5.00;99.90
18717;DHT22;9487;50.892;6.906;2022-12-18T05:59:35;-5.10;99.90
18717;DHT22;9487;50.892;6.906;2022-12-18T06:02:03;-5.10;99.90
18717;DHT22;9487;50.892;6.906;2022-12-18T06:04:30;-5.10;99.90
18717;DHT22;9487;50.892;6.906;2022-12-18T06:06:58;-5.20;99.90
18717;DHT22;9487;50.892;6.906;2022-12-18T06:09:25;-5.10;1.00
18717;DHT22;9487;50.892;6.906;2022-12-18T06:11:52;-5.00;1.00
18717;DHT22;9487;50.892;6.906;2022-12-18T06:14:19;-4.90;99.90
18717;DHT22;9487;50.892;6.906;2022-12-18T06:16:45;-4.90;99.90
18717;DHT22;9487;50.892;6.906;2022-12-18T06:19:16;-5.00;99.90
18717;DHT22;9487;50.892;6.906;2022-12-18T06:21:43;-5.10;99.90
18717;DHT22;9487;50.892;6.906;2022-12-18T06:24:10;-5.10;99.90
18717;DHT22;9487;50.892;6.906;2022-12-18T06:26:37;-5.10;1.00
18717;DHT22;9487;50.892;6.906;2022-12-18T06:29:04;-5.10;1.00
18717;DHT22;9487;50.892;6.906;2022-12-18T06:31:31;-5.10;1.00
18717;DHT22;9487;50.892;6.906;2022-12-18T06:33:58;-5.00;1.00
18717;DHT22;9487;50.892;6.906;2022-12-18T06:36:26;-5.00;99.90
18717;DHT22;9487;50.892;6.906;2022-12-18T06:38:56;-4.80;99.90
18717;DHT22;9487;50.892;6.906;2022-12-18T06:41:23;-4.90;99.90
18717;DHT22;9487;50.892;6.906;2022-12-18T06:43:50;-4.90;99.90
18717;DHT22;9487;50.892;6.906;2022-12-18T06:46:17;-4.90;99.90
18717;DHT22;9487;50.892;6.906;2022-12-18T06:48:47;-4.90;99.90
18717;DHT22;9487;50.892;6.906;2022-12-18T06:51:16;-4.80;99.90
18717;DHT22;9487;50.892;6.906;2022-12-18T06:53:44;-5.00;99.90
18717;DHT22;9487;50.892;6.906;2022-12-18T06:56:11;-5.00;99.90
18717;DHT22;9487;50.892;6.906;2022-12-18T06:58:38;-5.10;99.90
18717;DHT22;9487;50.892;6.906;2022-12-18T07:01:07;-5.10;99.90
18717;DHT22;9487;50.892;6.906;2022-12-18T07:03:34;-5.10;1.00
18717;DHT22;9487;50.892;6.906;2022-12-18T07:06:01;-5.10;1.00
18717;DHT22;9487;50.892;6.906;2022-12-18T07:08:29;-5.10;1.00
18717;DHT22;9487;50.892;6.906;2022-12-18T07:10:57;-5.20;1.00
18717;DHT22;9487;50.892;6.906;2022-12-18T07:13:24;-5.20;1.00
18717;DHT22;9487;50.892;6.906;2022-12-18T07:15:52;-5.20;1.00
18717;DHT22;9487;50.892;6.906;2022-12-18T07:18:19;-5.10;1.00
18717;DHT22;9487;50.892;6.906;2022-12-18T07:20:45;-5.10;1.00
18717;DHT22;9487;50.892;6.906;2022-12-18T07:23:12;-5.10;1.00
18717;DHT22;9487;50.892;6.906;2022-12-18T07:25:39;-5.10;1.00
18717;DHT22;9487;50.892;6.906;2022-12-18T07:28:07;-5.00;1.00
18717;DHT22;9487;50.892;6.906;2022-12-18T07:30:36;-5.00;1.00
18717;DHT22;9487;50.892;6.906;2022-12-18T07:33:03;-5.00;1.00
18717;DHT22;9487;50.892;6.906;2022-12-18T07:35:30;-5.00;1.00
18717;DHT22;9487;50.892;6.906;2022-12-18T07:37:57;-5.00;1.00
18717;DHT22;9487;50.892;6.906;2022-12-18T07:40:26;-4.90;1.00
18717;DHT22;9487;50.892;6.906;2022-12-18T07:42:53;-4.70;1.00
18717;DHT22;9487;50.892;6.906;2022-12-18T07:45:21;-4.70;1.00
18717;DHT22;9487;50.892;6.906;2022-12-18T07:47:48;-4.50;99.90
18717;DHT22;9487;50.892;6.906;2022-12-18T07:50:15;-4.40;99.90
18717;DHT22;9487;50.892;6.906;2022-12-18T07:52:42;-4.40;96.50
18717;DHT22;9487;50.892;6.906;2022-12-18T07:55:09;-4.30;35.70
18717;DHT22;9487;50.892;6.906;2022-12-18T07:57:35;-4.30;1.00
18717;DHT22;9487;50.892;6.906;2022-12-18T08:00:03;-4.20;1.00
18717;DHT22;9487;50.892;6.906;2022-12-18T08:02:32;-4.20;1.00
18717;DHT22;9487;50.892;6.906;2022-12-18T08:04:58;-4.30;1.00
18717;DHT22;9487;50.892;6.906;2022-12-18T08:07:25;-4.20;1.00
18717;DHT22;9487;50.892;6.906;2022-12-18T08:09:52;-4.10;1.00
18717;DHT22;9487;50.892;6.906;2022-12-18T08:12:19;-4.20;1.00
18717;DHT22;9487;50.892;6.906;2022-12-18T08:14:46;-4.10;1.00
18717;DHT22;9487;50.892;6.906;2022-12-18T08:17:12;-4.00;1.00
18717;DHT22;9487;50.892;6.906;2022-12-18T08:19:41;-4.00;1.00
18717;DHT22;9487;50.892;6.906;2022-12-18T08:22:07;-4.00;1.00
18717;DHT22;9487;50.892;6.906;2022-12-18T08:24:34;-3.80;1.00
18717;DHT22;9487;50.892;6.906;2022-12-18T08:27:01;-3.70;1.00
18717;DHT22;9487;50.892;6.906;2022-12-18T08:29:28;-3.60;99.90
18717;DHT22;9487;50.892;6.906;2022-12-18T08:31:55;-3.50;99.90
18717;DHT22;9487;50.892;6.906;2022-12-18T08:34:22;-3.50;99.90
18717;DHT22;9487;50.892;6.906;2022-12-18T08:36:50;-3.40;1.00
18717;DHT22;9487;50.892;6.906;2022-12-18T08:39:17;-3.40;1.00
18717;DHT22;9487;50.892;6.906;2022-12-18T08:41:44;-3.40;1.00
18717;DHT22;9487;50.892;6.906;2022-12-18T08:44:31;-3.30;1.00
18717;DHT22;9487;50.892;6.906;2022-12-18T08:47:03;-3.30;1.00
18717;DHT22;9487;50.892;6.906;2022-12-18T08:49:30;-3.40;99.90
18717;DHT22;9487;50.892;6.906;2022-12-18T08:51:58;-3.40;1.00
18717;DHT22;9487;50.892;6.906;2022-12-18T08:54:26;-3.40;1.00
18717;DHT22;9487;50.892;6.906;2022-12-18T08:56:53;-3.30;1.00
18717;DHT22;9487;50.892;6.906;2022-12-18T08:59:20;-3.30;1.00
18717;DHT22;9487;50.892;6.906;2022-12-18T09:01:47;-3.20;1.00
18717;DHT22;9487;50.892;6.906;2022-12-18T09:04:14;-3.10;99.90
18717;DHT22;9487;50.892;6.906;2022-12-18T09:06:40;-3.10;99.90
18717;DHT22;9487;50.892;6.906;2022-12-18T09:09:09;-2.90;99.90
18717;DHT22;9487;50.892;6.906;2022-12-18T09:11:36;-2.80;99.90
18717;DHT22;9487;50.892;6.906;2022-12-18T09:14:03;-2.80;1.00
18717;DHT22;9487;50.892;6.906;2022-12-18T09:16:31;-2.80;1.00
18717;DHT22;9487;50.892;6.906;2022-12-18T09:19:01;-2.90;1.00
18717;DHT22;9487;50.892;6.906;2022-12-18T09:21:30;-2.90;1.00
18717;DHT22;9487;50.892;6.906;2022-12-18T09:23:57;-2.90;77.50
18717;DHT22;9487;50.892;6.906;2022-12-18T09:26:26;-2.90;99.90
18717;DHT22;9487;50.892;6.906;2022-12-18T09:28:53;-2.90;1.00
18717;DHT22;9487;50.892;6.906;2022-12-18T09:31:23;-2.90;1.00
18717;DHT22;9487;50.892;6.906;2022-12-18T09:33:50;-2.80;1.00
18717;DHT22;9487;50.892;6.906;2022-12-18T09:36:18;-2.80;1.20
18717;DHT22;9487;50.892;6.906;2022-12-18T09:38:45;-2.60;1.00
18717;DHT22;9487;50.892;6.906;2022-12-18T09:44:10;-2.50;1.00
18717;DHT22;9487;50.892;6.906;2022-12-18T09:46:43;-2.50;1.00
18717;DHT22;9487;50.892;6.906;2022-12-18T09:49:16;-2.50;1.00
18717;DHT22;9487;50.892;6.906;2022-12-18T09:51:47;-2.50;75.80
18717;DHT22;9487;50.892;6.906;2022-12-18T09:54:20;-2.40;1.00
18717;DHT22;9487;50.892;6.906;2022-12-18T09:56:48;-2.30;10.40
18717;DHT22;9487;50.892;6.906;2022-12-18T09:59:21;-2.20;1.00
18717;DHT22;9487;50.892;6.906;2022-12-18T10:01:50;-2.30;1.00
18717;DHT22;9487;50.892;6.906;2022-12-18T10:04:16;-2.30;1.00
18717;DHT22;9487;50.892;6.906;2022-12-18T10:06:49;-2.20;99.90
18717;DHT22;9487;50.892;6.906;2022-12-18T10:09:27;-2.20;99.90
18717;DHT22;9487;50.892;6.906;2022-12-18T10:12:04;-2.10;99.90
18717;DHT22;9487;50.892;6.906;2022-12-18T10:14:41;-2.10;99.90
18717;DHT22;9487;50.892;6.906;2022-12-18T10:17:17;-2.00;1.00
18717;DHT22;9487;50.892;6.906;2022-12-18T10:19:50;-2.00;99.90
18717;DHT22;9487;50.892;6.906;2022-12-18T10:22:27;-2.00;1.00
18717;DHT22;9487;50.892;6.906;2022-12-18T10:24:59;-1.90;99.90
18717;DHT22;9487;50.892;6.906;2022-12-18T10:27:28;-1.80;99.90
18717;DHT22;9487;50.892;6.906;2022-12-18T10:29:57;-1.80;1.00
18717;DHT22;9487;50.892;6.906;2022-12-18T10:32:26;-1.70;1.00
18717;DHT22;9487;50.892;6.906;2022-12-18T10:34:54;-1.70;1.00
18717;DHT22;9487;50.892;6.906;2022-12-18T10:37:24;-1.70;1.00
18717;DHT22;9487;50.892;6.906;2022-12-18T10:40:07;-1.60;1.00
18717;DHT22;9487;50.892;6.906;2022-12-18T10:42:35;-1.50;1.00
18717;DHT22;9487;50.892;6.906;2022-12-18T10:45:11;-1.40;1.00
18717;DHT22;9487;50.892;6.906;2022-12-18T10:47:42;-1.40;99.90
18717;DHT22;9487;50.892;6.906;2022-12-18T10:50:18;-1.40;99.90
18717;DHT22;9487;50.892;6.906;2022-12-18T10:52:57;-1.40;99.90
18717;DHT22;9487;50.892;6.906;2022-12-18T10:55:29;-1.30;99.90
18717;DHT22;9487;50.892;6.906;2022-12-18T10:58:14;-1.30;99.90
18717;DHT22;9487;50.892;6.906;2022-12-18T11:00:44;-1.30;99.90
18717;DHT22;9487;50.892;6.906;2022-12-18T11:03:30;-1.30;99.90
18717;DHT22;9487;50.892;6.906;2022-12-18T11:06:06;-1.20;99.90
18717;DHT22;9487;50.892;6.906;2022-12-18T11:08:34;-1.20;99.90
18717;DHT22;9487;50.892;6.906;2022-12-18T11:11:01;-1.20;1.00
18717;DHT22;9487;50.892;6.906;2022-12-18T11:13:30;-1.30;1.00
18717;DHT22;9487;50.892;6.906;2022-12-18T11:15:59;-1.20;98.00
18717;DHT22;9487;50.892;6.906;2022-12-18T11:18:31;-1.10;1.00
18717;DHT22;9487;50.892;6.906;2022-12-18T11:21:07;-1.20;1.00
18717;DHT22;9487;50.892;6.906;2022-12-18T11:23:36;-1.20;71.20
18717;DHT22;9487;50.892;6.906;2022-12-18T11:26:04;-1.10;1.00
18717;DHT22;9487;50.892;6.906;2022-12-18T11:28:39;-1.10;1.00
18717;DHT22;9487;50.892;6.906;2022-12-18T11:31:24;-1.00;1.00
18717;DHT22;9487;50.892;6.906;2022-12-18T11:34:01;-1.00;1.00
18717;DHT22;9487;50.892;6.906;2022-12-18T11:36:32;-1.20;1.00
18717;DHT22;9487;50.892;6.906;2022-12-18T11:39:05;-1.20;1.00
18717;DHT22;9487;50.892;6.906;2022-12-18T11:41:41;-1.10;1.00
18717;DHT22;9487;50.892;6.906;2022-12-18T11:44:34;-1.10;1.00
18717;DHT22;9487;50.892;6.906;2022-12-18T11:47:08;-1.10;1.00
18717;DHT22;9487;50.892;6.906;2022-12-18T11:49:36;-1.10;1.00
18717;DHT22;9487;50.892;6.906;2022-12-18T11:52:09;-1.10;1.00
18717;DHT22;9487;50.892;6.906;2022-12-18T11:54:36;-1.00;1.00
18717;DHT22;9487;50.892;6.906;2022-12-18T11:57:08;-1.10;1.00
18717;DHT22;9487;50.892;6.906;2022-12-18T11:59:46;-1.10;1.00
18717;DHT22;9487;50.892;6.906;2022-12-18T12:02:28;-1.10;1.00
18717;DHT22;9487;50.892;6.906;2022-12-18T12:05:09;-1.00;89.70
18717;DHT22;9487;50.892;6.906;2022-12-18T12:07:44;-1.10;1.00
18717;DHT22;9487;50.892;6.906;2022-12-18T12:10:23;-1.20;17.00
18717;DHT22;9487;50.892;6.906;2022-12-18T12:13:07;-1.10;99.90
18717;DHT22;9487;50.892;6.906;2022-12-18T12:15:43;-1.10;99.90
18717;DHT22;9487;50.892;6.906;2022-12-18T12:18:21;-1.10;99.90
18717;DHT22;9487;50.892;6.906;2022-12-18T12:20:53;-1.10;99.90
18717;DHT22;9487;50.892;6.906;2022-12-18T12:23:33;-1.10;1.00
18717;DHT22;9487;50.892;6.906;2022-12-18T12:26:06;-1.10;99.90
18717;DHT22;9487;50.892;6.906;2022-12-18T12:29:01;-1.10;99.90
18717;DHT22;9487;50.892;6.906;2022-12-18T12:31:47;-1.10;1.00
18717;DHT22;9487;50.892;6.906;2022-12-18T12:34:23;-1.10;99.90
18717;DHT22;9487;50.892;6.906;2022-12-18T12:37:06;-1.10;99.90
18717;DHT22;9487;50.892;6.906;2022-12-18T12:39:38;-1.10;1.00
18717;DHT22;9487;50.892;6.906;2022-12-18T12:42:10;-1.10;99.90
18717;DHT22;9487;50.892;6.906;2022-12-18T12:44:58;-1.10;1.00
18717;DHT22;9487;50.892;6.906;2022-12-18T12:47:32;-1.10;1.00
18717;DHT22;9487;50.892;6.906;2022-12-18T12:50:04;-1.10;1.00
18717;DHT22;9487;50.892;6.906;2022-12-18T12:52:35;-1.10;99.90
18717;DHT22;9487;50.892;6.906;2022-12-18T12:55:07;-1.10;99.90
18717;DHT22;9487;50.892;6.906;2022-12-18T12:57:43;-1.10;99.90
18717;DHT22;9487;50.892;6.906;2022-12-18T13:00:15;-1.00;94.30
18717;DHT22;9487;50.892;6.906;2022-12-18T13:02:45;-0.90;33.90
18717;DHT22;9487;50.892;6.906;2022-12-18T13:05:21;-0.90;1.00
18717;DHT22;9487;50.892;6.906;2022-12-18T13:07:52;-0.90;1.00
18717;DHT22;9487;50.892;6.906;2022-12-18T13:10:27;-0.90;99.90
18717;DHT22;9487;50.892;6.906;2022-12-18T13:12:58;-0.80;99.90
18717;DHT22;9487;50.892;6.906;2022-12-18T13:15:29;-0.80;99.90
18717;DHT22;9487;50.892;6.906;2022-12-18T13:18:05;-0.80;73.90
18717;DHT22;9487;50.892;6.906;2022-12-18T13:20:35;-0.70;95.50
18717;DHT22;9487;50.892;6.906;2022-12-18T13:23:20;-0.70;1.00
18717;DHT22;9487;50.892;6.906;2022-12-18T13:25:52;-0.70;65.40
18717;DHT22;9487;50.892;6.906;2022-12-18T13:28:21;-0.80;1.00
18717;DHT22;9487;50.892;6.906;2022-12-18T13:30:52;-0.80;99.90
18717;DHT22;9487;50.892;6.906;2022-12-18T13:33:49;-0.80;1.00
18717;DHT22;9487;50.892;6.906;2022-12-18T13:36:31;-0.80;1.00
18717;DHT22;9487;50.892;6.906;2022-12-18T13:39:32;-0.80;1.00
18717;DHT22;9487;50.892;6.906;2022-12-18T13:48:18;-0.80;32.00
18717;DHT22;9487;50.892;6.906;2022-12-18T13:50:59;-0.80;1.00
18717;DHT22;9487;50.892;6.906;2022-12-18T13:53:32;-0.80;1.00
18717;DHT22;9487;50.892;6.906;2022-12-18T13:56:00;-0.80;1.00
18717;DHT22;9487;50.892;6.906;2022-12-18T13:58:28;-0.80;1.00
18717;DHT22;9487;50.892;6.906;2022-12-18T14:00:55;-0.80;1.00
18717;DHT22;9487;50.892;6.906;2022-12-18T14:03:24;-0.80;1.00
18717;DHT22;9487;50.892;6.906;2022-12-18T14:05:55;-0.80;29.30
18717;DHT22;9487;50.892;6.906;2022-12-18T14:08:23;-0.80;40.10
18717;DHT22;9487;50.892;6.906;2022-12-18T14:10:55;-0.90;1.00
18717;DHT22;9487;50.892;6.906;2022-12-18T14:13:26;-0.90;1.00
18717;DHT22;9487;50.892;6.906;2022-12-18T14:15:55;-0.90;1.00
18717;DHT22;9487;50.892;6.906;2022-12-18T14:18:24;-1.00;1.00
18717;DHT22;9487;50.892;6.906;2022-12-18T14:20:53;-0.90;1.00
18717;DHT22;9487;50.892;6.906;2022-12-18T14:23:32;-1.00;4.10
18717;DHT22;9487;50.892;6.906;2022-12-18T14:26:02;-0.90;99.90
18717;DHT22;9487;50.892;6.906;2022-12-18T14:28:29;-1.00;1.00
18717;DHT22;9487;50.892;6.906;2022-12-18T14:30:56;-1.00;99.90
18717;DHT22;9487;50.892;6.906;2022-12-18T14:33:24;-1.00;7.60
18717;DHT22;9487;50.892;6.906;2022-12-18T14:35:57;-1.00;99.90
18717;DHT22;9487;50.892;6.906;2022-12-18T14:38:27;-1.00;99.90
18717;DHT22;9487;50.892;6.906;2022-12-18T14:40:55;-1.00;99.90
18717;DHT22;9487;50.892;6.906;2022-12-18T14:43:28;-1.00;99.90
18717;DHT22;9487;50.892;6.906;2022-12-18T14:45:56;-1.10;99.90
18717;DHT22;9487;50.892;6.906;2022-12-18T14:48:35;-1.10;99.90
18717;DHT22;9487;50.892;6.906;2022-12-18T14:51:04;-1.10;99.90
18717;DHT22;9487;50.892;6.906;2022-12-18T14:53:35;-1.10;99.90
18717;DHT22;9487;50.892;6.906;2022-12-18T14:56:03;-1.20;99.90
18717;DHT22;9487;50.892;6.906;2022-12-18T14:58:31;-1.10;1.00
18717;DHT22;9487;50.892;6.906;2022-12-18T15:00:58;-1.10;1.00
18717;DHT22;9487;50.892;6.906;2022-12-18T15:03:25;-1.10;99.90
18717;DHT22;9487;50.892;6.906;2022-12-18T15:05:52;-1.10;99.90
18717;DHT22;9487;50.892;6.906;2022-12-18T15:08:32;-1.10;1.00
18717;DHT22;9487;50.892;6.906;2022-12-18T15:11:00;-1.20;99.90
18717;DHT22;9487;50.892;6.906;2022-12-18T15:13:27;-1.20;5.30
18717;DHT22;9487;50.892;6.906;2022-12-18T15:15:56;-1.20;1.00
18717;DHT22;9487;50.892;6.906;2022-12-18T15:18:29;-1.20;1.00
18717;DHT22;9487;50.892;6.906;2022-12-18T15:20:59;-1.20;1.00
18717;DHT22;9487;50.892;6.906;2022-12-18T15:23:35;-1.20;1.00
18717;DHT22;9487;50.892;6.906;2022-12-18T15:26:04;-1.20;1.00
18717;DHT22;9487;50.892;6.906;2022-12-18T15:28:34;-1.20;1.00
18717;DHT22;9487;50.892;6.906;2022-12-18T15:31:17;-1.20;1.00
18717;DHT22;9487;50.892;6.906;2022-12-18T15:34:14;-1.20;99.90
18717;DHT22;9487;50.892;6.906;2022-12-18T15:36:44;-1.20;1.00
18717;DHT22;9487;50.892;6.906;2022-12-18T15:39:12;-1.20;99.90
18717;DHT22;9487;50.892;6.906;2022-12-18T15:41:39;-1.20;99.90
18717;DHT22;9487;50.892;6.906;2022-12-18T15:44:26;-1.30;99.90
18717;DHT22;9487;50.892;6.906;2022-12-18T15:46:54;-1.30;1.00
18717;DHT22;9487;50.892;6.906;2022-12-18T15:49:23;-1.30;1.00
18717;DHT22;9487;50.892;6.906;2022-12-18T15:51:53;-1.30;1.00
18717;DHT22;9487;50.892;6.906;2022-12-18T15:54:21;-1.30;1.00
18717;DHT22;9487;50.892;6.906;2022-12-18T15:57:09;-1.30;23.10
18717;DHT22;9487;50.892;6.906;2022-12-18T15:59:53;-1.30;99.90
18717;DHT22;9487;50.892;6.906;2022-12-18T16:02:23;-1.20;99.90
18717;DHT22;9487;50.892;6.906;2022-12-18T16:04:50;-1.30;99.90
18717;DHT22;9487;50.892;6.906;2022-12-18T16:07:17;-1.30;1.00
18717;DHT22;9487;50.892;6.906;2022-12-18T16:09:44;-1.30;1.00
18717;DHT22;9487;50.892;6.906;2022-12-18T16:12:16;-1.30;1.00
18717;DHT22;9487;50.892;6.906;2022-12-18T16:14:44;-1.30;1.00
18717;DHT22;9487;50.892;6.906;2022-12-18T16:17:13;-1.30;1.00
18717;DHT22;9487;50.892;6.906;2022-12-18T16:19:41;-1.30;1.00
18717;DHT22;9487;50.892;6.906;2022-12-18T16:22:19;-1.30;6.00
18717;DHT22;9487;50.892;6.906;2022-12-18T16:24:49;-1.30;1.00